Time;durP1;ratioP1;P1;durP2;ratioP2;P2;SDS_P1;SDS_P2;PMS_P1;PMS_P2;Temp;Humidity;BMP_temperature;BMP_pressure;BME280_temperature;BME280_humidity;BME280_pressure;Samples;Min_cycle;Max_cycle;Signal;HPM_P1;HPM_P2
2021/12/18 00:02:05;;;;;;;35.05;7.22;;;7.20;99.90;;;;;;4910991;28;20077;-75
2021/12/18 00:04:30;;;;;;;35.10;6.95;;;7.20;99.90;;;;;;4957145;28;20493;-74
2021/12/18 00:06:57;;;;;;;63.60;8.98;;;7.20;99.90;;;;;;4940743;28;20047;-75
2021/12/18 00:09:25;;;;;;;43.25;7.80;;;7.20;99.90;;;;;;4975177;28;20069;-74
2021/12/18 00:11:51;;;;;;;27.55;6.72;;;7.20;99.90;;;;;;4940988;28;20069;-74
2021/12/18 00:14:17;;;;;;;;;;;7.20;99.90;;;;;;4935193;29;20135;-74
2021/12/18 00:16:43;;;;;;;22.35;5.05;;;7.20;99.90;;;;;;4932371;29;20009;-80
2021/12/18 00:19:09;;;;;;;14.90;4.63;;;7.10;99.90;;;;;;4933483;29;20158;-74
2021/12/18 00:21:36;;;;;;;18.88;4.68;;;7.10;99.90;;;;;;4916921;29;20476;-75
2021/12/18 00:24:07;;;;;;;21.88;4.90;;;7.00;99.90;;;;;;4918435;29;20048;-80
2021/12/18 00:26:33;;;;;;;11.75;3.83;;;7.00;99.90;;;;;;4917449;29;20066;-75
2021/12/18 00:28:59;;;;;;;9.80;3.42;;;7.00;99.90;;;;;;4934064;29;20059;-75
2021/12/18 00:31:25;;;;;;;8.32;3.00;;;7.00;99.90;;;;;;4934965;29;20397;-74
2021/12/18 00:33:51;;;;;;;7.63;3.50;;;6.90;99.90;;;;;;4933423;29;20051;-75
2021/12/18 00:36:17;;;;;;;9.35;3.28;;;6.90;99.90;;;;;;4901420;29;20051;-74
2021/12/18 00:38:42;;;;;;;8.88;2.95;;;6.80;99.90;;;;;;4934232;29;20549;-74
2021/12/18 00:43:41;;;;;;;16.98;3.92;;;6.80;99.90;;;;;;4933450;29;20063;-75
2021/12/18 00:46:07;;;;;;;13.55;4.32;;;6.80;99.90;;;;;;4915140;29;20142;-76
2021/12/18 00:48:33;;;;;;;14.32;4.50;;;6.80;99.90;;;;;;4917211;29;20138;-75
2021/12/18 00:50:58;;;;;;;22.70;4.78;;;6.80;99.90;;;;;;4934259;29;20062;-75
2021/12/18 00:53:24;;;;;;;27.35;5.95;;;6.90;99.90;;;;;;4933284;29;20052;-77
2021/12/18 00:55:52;;;;;;;24.92;5.28;;;6.80;99.90;;;;;;4917095;29;20648;-74
2021/12/18 00:58:18;;;;;;;30.95;5.18;;;6.80;99.90;;;;;;4932411;29;20048;-74
2021/12/18 01:00:46;;;;;;;11.80;3.83;;;6.80;99.90;;;;;;4917122;29;20125;-76
2021/12/18 01:03:18;;;;;;;19.98;4.18;;;6.80;99.90;;;;;;4900803;29;20523;-78
2021/12/18 01:05:45;;;;;;;26.20;4.45;;;6.80;99.90;;;;;;4932912;29;20088;-74
2021/12/18 01:08:11;;;;;;;24.25;4.80;;;6.80;99.90;;;;;;4914980;29;20505;-75
2021/12/18 01:13:26;;;;;;;10.98;3.60;;;6.70;99.90;;;;;;4895143;29;1122735;-74
2021/12/18 01:15:55;;;;;;;11.57;3.53;;;6.70;99.90;;;;;;4917562;29;20050;-80
2021/12/18 01:23:50;;;;;;;18.30;4.35;;;6.70;99.90;;;;;;4929141;29;20062;-76
2021/12/18 01:26:17;;;;;;;37.10;5.63;;;6.70;99.90;;;;;;4933622;29;20057;-75
2021/12/18 01:28:43;;;;;;;30.17;5.25;;;6.60;99.90;;;;;;4933971;29;20060;-75
2021/12/18 01:31:09;;;;;;;32.85;5.85;;;6.70;99.90;;;;;;4932135;29;20047;-75
2021/12/18 01:33:36;;;;;;;39.75;5.63;;;6.70;99.90;;;;;;4916084;29;20043;-84
2021/12/18 01:36:02;;;;;;;68.32;6.80;;;6.70;99.90;;;;;;4920175;29;20080;-76
2021/12/18 01:38:30;;;;;;;40.25;8.40;;;6.70;99.90;;;;;;4931929;29;20039;-76
2021/12/18 01:40:57;;;;;;;53.20;6.43;;;6.70;99.90;;;;;;4932603;29;20060;-76
2021/12/18 01:46:15;;;;;;;84.25;7.97;;;6.80;99.90;;;;;;4948281;29;20052;-74
2021/12/18 01:51:23;;;;;;;65.03;8.57;;;6.70;99.90;;;;;;4934016;29;20063;-75
2021/12/18 01:53:53;;;;;;;74.53;7.15;;;6.70;99.90;;;;;;4916726;29;20060;-74
2021/12/18 01:56:19;;;;;;;66.00;6.68;;;6.70;99.90;;;;;;4934662;29;20142;-74
2021/12/18 01:58:46;;;;;;;77.05;6.75;;;6.70;99.90;;;;;;4931755;29;20051;-75
2021/12/18 02:01:12;;;;;;;54.63;5.97;;;6.70;99.90;;;;;;4933411;29;20146;-76
2021/12/18 02:03:39;;;;;;;37.60;4.45;;;6.70;99.90;;;;;;4933801;29;20051;-82
2021/12/18 02:06:05;;;;;;;33.13;5.03;;;6.70;99.90;;;;;;4932732;29;20485;-74
2021/12/18 02:08:33;;;;;;;39.15;4.82;;;6.70;99.90;;;;;;4933165;29;20397;-75
2021/12/18 02:11:12;;;;;;;53.67;5.07;;;6.60;99.90;;;;;;4948103;29;20118;-75
2021/12/18 02:14:04;;;;;;;26.35;4.18;;;6.70;99.90;;;;;;4944134;29;20126;-75
2021/12/18 02:21:56;;;;;;;37.20;4.30;;;6.60;99.90;;;;;;4950523;29;20093;-75
2021/12/18 02:24:25;;;;;;;27.05;3.10;;;6.60;99.90;;;;;;4953740;28;20043;-76
2021/12/18 02:26:51;;;;;;;39.30;4.43;;;6.60;99.90;;;;;;4948246;29;20056;-75
2021/12/18 02:29:17;;;;;;;14.50;3.33;;;6.50;99.90;;;;;;4917306;29;20083;-75
2021/12/18 02:31:45;;;;;;;19.13;3.58;;;6.60;99.90;;;;;;4932589;29;20094;-81
2021/12/18 02:34:17;;;;;;;34.88;4.35;;;6.60;99.90;;;;;;4934235;29;20055;-74
2021/12/18 02:36:47;;;;;;;28.92;3.85;;;6.60;99.90;;;;;;4939124;29;20055;-81
2021/12/18 02:44:52;;;;;;;15.30;2.42;;;6.60;99.90;;;;;;4896331;29;20067;-74
2021/12/18 02:47:18;;;;;;;14.68;2.60;;;6.50;99.90;;;;;;4944635;28;20055;-74
2021/12/18 02:49:46;;;;;;;10.18;2.40;;;6.50;99.90;;;;;;4951615;29;20378;-81
2021/12/18 02:52:13;;;;;;;14.95;2.80;;;6.50;99.90;;;;;;4951747;28;20487;-74
2021/12/18 02:54:42;;;;;;;12.63;2.58;;;6.40;99.90;;;;;;4953195;28;20050;-75
2021/12/18 02:57:09;;;;;;;14.45;2.70;;;6.40;99.90;;;;;;4952015;28;20043;-74
2021/12/18 02:59:50;;;;;;;10.23;2.47;;;6.40;99.90;;;;;;4936217;29;20497;-74
2021/12/18 03:02:17;;;;;;;8.52;2.58;;;6.40;99.90;;;;;;4952717;28;20058;-74
2021/12/18 03:04:48;;;;;;;12.98;2.60;;;6.40;99.90;;;;;;4953025;28;20043;-75
2021/12/18 03:07:16;;;;;;;15.48;2.58;;;6.40;99.90;;;;;;4950725;29;20054;-74
2021/12/18 03:25:44;;;;;;;8.70;1.98;;;6.40;99.90;;;;;;4954527;28;20765;-74
2021/12/18 03:28:10;;;;;;;;;;;6.40;99.90;;;;;;4938865;28;20158;-74
2021/12/18 03:30:36;;;;;;;6.47;1.92;;;6.40;99.90;;;;;;4972086;28;20018;-74
2021/12/18 03:33:03;;;;;;;;;;;6.30;99.90;;;;;;4954199;28;20451;-74
2021/12/18 03:35:29;;;;;;;6.45;1.77;;;6.30;99.90;;;;;;4971954;28;19926;-77
2021/12/18 03:37:55;;;;;;;10.60;2.10;;;6.30;99.90;;;;;;4952759;28;20046;-75
2021/12/18 03:40:22;;;;;;;;;;;6.30;99.90;;;;;;4944293;29;20173;-79
2021/12/18 03:42:49;;;;;;;7.60;1.77;;;6.20;99.90;;;;;;4952352;29;19923;-78
2021/12/18 03:45:17;;;;;;;7.82;2.08;;;6.20;99.90;;;;;;4927036;28;20492;-74
2021/12/18 03:47:44;;;;;;;9.05;2.05;;;6.20;99.90;;;;;;4971685;28;20125;-74
2021/12/18 03:50:10;;;;;;;7.57;2.28;;;6.20;99.90;;;;;;4970682;28;20051;-73
2021/12/18 03:52:36;;;;;;;10.30;2.28;;;6.20;99.90;;;;;;4970497;28;20051;-73
2021/12/18 03:55:03;;;;;;;6.30;1.85;;;6.30;99.90;;;;;;4971429;28;20061;-75
2021/12/18 03:57:29;;;;;;;5.43;1.73;;;6.20;99.90;;;;;;4953374;28;20324;-73
2021/12/18 03:59:55;;;;;;;5.72;1.75;;;6.20;99.90;;;;;;4971259;28;20047;-74
2021/12/18 04:02:21;;;;;;;6.93;2.00;;;6.20;99.90;;;;;;4938461;28;20086;-73
2021/12/18 04:04:47;;;;;;;4.57;1.70;;;6.20;99.90;;;;;;4954598;28;20145;-74
2021/12/18 04:07:14;;;;;;;5.85;1.70;;;6.20;99.90;;;;;;4969949;28;20035;-77
2021/12/18 04:09:39;;;;;;;4.90;1.70;;;6.20;99.90;;;;;;4938611;28;20142;-73
2021/12/18 04:12:06;;;;;;;6.20;1.80;;;6.20;99.90;;;;;;4970461;28;20129;-73
2021/12/18 04:14:31;;;;;;;4.00;1.50;;;6.20;99.90;;;;;;4954042;28;20102;-73
2021/12/18 04:16:57;;;;;;;4.95;1.50;;;6.20;99.90;;;;;;4953668;28;20062;-73
2021/12/18 04:19:23;;;;;;;3.63;1.45;;;6.20;99.90;;;;;;4944138;29;20055;-74
2021/12/18 04:21:49;;;;;;;8.55;2.00;;;6.10;99.90;;;;;;4953160;28;20135;-75
2021/12/18 04:24:15;;;;;;;5.32;1.60;;;6.10;99.90;;;;;;4955174;29;20054;-73
2021/12/18 04:26:41;;;;;;;9.77;2.10;;;6.10;99.90;;;;;;4938355;29;20043;-73
2021/12/18 04:29:07;;;;;;;4.85;1.73;;;6.00;99.90;;;;;;4937980;29;20051;-74
2021/12/18 04:31:35;;;;;;;3.03;1.33;;;6.10;99.90;;;;;;4922649;29;20449;-74
2021/12/18 04:34:02;;;;;;;4.15;1.60;;;6.00;99.90;;;;;;4964657;28;20129;-75
2021/12/18 04:36:27;;;;;;;;;;;5.90;99.90;;;;;;4974467;28;20137;-74
2021/12/18 04:38:53;;;;;;;9.98;1.70;;;5.90;99.90;;;;;;4940761;28;20021;-82
2021/12/18 04:41:37;;;;;;;5.43;1.45;;;5.90;99.90;;;;;;4974197;28;20043;-73
2021/12/18 04:44:04;;;;;;;9.23;1.80;;;5.80;99.90;;;;;;4956948;28;20452;-73
2021/12/18 04:46:29;;;;;;;8.70;1.73;;;5.90;99.90;;;;;;4973927;28;20060;-75
2021/12/18 04:48:55;;;;;;;7.45;1.75;;;5.90;99.90;;;;;;4956985;28;20463;-76
2021/12/18 04:51:21;;;;;;;9.05;2.20;;;5.90;99.90;;;;;;4956515;28;20051;-73
2021/12/18 04:53:47;;;;;;;8.30;2.13;;;5.90;99.90;;;;;;4957104;28;20089;-73
2021/12/18 04:56:12;;;;;;;7.40;2.00;;;5.90;99.90;;;;;;4956438;28;20046;-73
2021/12/18 04:58:38;;;;;;;9.65;2.55;;;5.90;99.90;;;;;;4974512;28;20109;-73
2021/12/18 05:01:04;;;;;;;6.13;1.60;;;5.90;99.90;;;;;;4973691;28;20105;-73
2021/12/18 05:03:31;;;;;;;7.63;1.83;;;5.90;99.90;;;;;;4940957;28;20489;-78
2021/12/18 05:05:59;;;;;;;6.38;1.75;;;5.90;99.90;;;;;;4956005;28;20057;-80
2021/12/18 05:08:25;;;;;;;7.75;1.90;;;6.00;99.90;;;;;;4973766;28;20042;-73
2021/12/18 05:10:51;;;;;;;9.63;2.38;;;5.90;99.90;;;;;;4956384;28;20059;-73
2021/12/18 05:13:16;;;;;;;8.05;1.95;;;5.80;99.90;;;;;;4973411;28;20062;-73
2021/12/18 05:15:42;;;;;;;8.93;2.00;;;5.80;99.90;;;;;;4957074;28;20082;-74
2021/12/18 05:18:08;;;;;;;9.63;1.95;;;6.30;99.90;;;;;;4973229;28;20403;-73
2021/12/18 05:20:33;;;;;;;8.70;2.10;;;5.90;99.90;;;;;;4956898;28;20043;-74
2021/12/18 05:22:59;;;;;;;10.18;2.15;;;5.80;99.90;;;;;;4972382;28;20054;-74
2021/12/18 05:25:25;;;;;;;8.50;2.10;;;5.80;99.90;;;;;;4940858;28;20054;-76
2021/12/18 05:27:50;;;;;;;11.15;1.98;;;5.80;99.90;;;;;;4973482;28;20400;-75
2021/12/18 05:30:16;;;;;;;8.43;1.75;;;5.80;99.90;;;;;;4956035;28;20090;-73
2021/12/18 05:32:42;;;;;;;9.55;2.53;;;5.80;99.90;;;;;;4951891;28;20137;-73
2021/12/18 05:35:08;;;;;;;16.92;2.55;;;5.80;99.90;;;;;;4937170;29;20047;-73
2021/12/18 05:38:34;;;;;;;;;;;5.80;99.90;;;;;;4936407;29;20054;-73
2021/12/18 05:40:29;;;;;;;14.35;2.58;;;5.80;99.90;;;;;;4923765;29;19929;-73
2021/12/18 05:42:55;;;;;;;11.18;2.20;;;5.80;99.90;;;;;;4953110;29;20055;-80
2021/12/18 05:45:21;;;;;;;8.90;2.00;;;5.80;99.90;;;;;;4924314;28;20062;-74
2021/12/18 05:47:47;;;;;;;13.35;2.25;;;5.90;99.90;;;;;;4940232;28;20051;-73
2021/12/18 05:50:16;;;;;;;12.70;2.13;;;6.20;99.90;;;;;;4955821;28;20175;-73
2021/12/18 05:52:44;;;;;;;17.05;2.70;;;5.80;99.90;;;;;;4954401;28;20050;-74
2021/12/18 05:55:10;;;;;;;14.00;2.25;;;5.80;99.90;;;;;;4955617;28;20050;-73
2021/12/18 05:57:36;;;;;;;10.32;2.20;;;5.70;99.90;;;;;;4955583;28;20480;-74
2021/12/18 06:00:04;;;;;;;;;;;5.70;99.90;;;;;;4955731;28;20046;-73
2021/12/18 06:02:30;;;;;;;15.65;2.20;;;5.80;99.90;;;;;;4954918;28;19936;-73
2021/12/18 06:04:56;;;;;;;20.13;2.78;;;5.80;99.90;;;;;;4972897;28;20121;-74
2021/12/18 06:07:37;;;;;;;25.63;2.88;;;5.80;99.90;;;;;;4971268;28;20507;-73
2021/12/18 06:10:04;;;;;;;22.17;2.53;;;5.80;99.90;;;;;;4955558;28;20492;-73
2021/12/18 06:12:29;;;;;;;;;;;5.80;99.90;;;;;;4955650;28;20065;-73
2021/12/18 06:14:55;;;;;;;22.75;3.05;;;5.90;99.90;;;;;;4955738;28;20376;-76
2021/12/18 06:17:21;;;;;;;19.85;2.97;;;5.80;99.90;;;;;;4971500;28;20075;-73
2021/12/18 06:19:46;;;;;;;25.85;3.05;;;5.90;99.90;;;;;;4972821;28;20152;-73
2021/12/18 06:22:12;;;;;;;27.35;3.38;;;5.90;99.90;;;;;;4937755;28;20058;-75
2021/12/18 06:24:38;;;;;;;25.38;2.85;;;5.90;99.90;;;;;;4972854;28;20053;-73
2021/12/18 06:27:04;;;;;;;24.88;4.38;;;5.90;99.90;;;;;;4954487;28;20047;-74
2021/12/18 06:29:31;;;;;;;24.75;3.42;;;5.90;99.90;;;;;;4951542;29;20047;-74
2021/12/18 06:31:57;;;;;;;21.75;3.25;;;6.00;99.90;;;;;;4947946;29;20086;-73
2021/12/18 06:34:23;;;;;;;24.23;3.05;;;6.00;99.90;;;;;;4936111;29;20043;-73
2021/12/18 06:36:49;;;;;;;19.92;3.30;;;6.00;99.90;;;;;;4935229;29;20102;-76
2021/12/18 06:39:14;;;;;;;20.10;3.38;;;6.00;99.90;;;;;;4952649;29;20405;-73
2021/12/18 06:41:40;;;;;;;17.77;2.90;;;6.00;99.90;;;;;;4956270;28;20082;-73
2021/12/18 06:44:06;;;;;;;31.00;3.17;;;6.00;99.90;;;;;;4938299;28;20050;-77
2021/12/18 06:46:32;;;;;;;26.77;3.47;;;6.10;99.90;;;;;;4954932;28;20058;-74
2021/12/18 06:48:58;;;;;;;18.27;2.75;;;6.00;99.90;;;;;;4955207;28;20042;-73
2021/12/18 06:51:24;;;;;;;19.13;3.08;;;6.00;99.90;;;;;;4953553;28;20101;-73
2021/12/18 06:53:50;;;;;;;;;;;6.00;99.90;;;;;;4938899;28;20058;-75
2021/12/18 06:56:16;;;;;;;16.35;2.60;;;6.10;99.90;;;;;;4954312;28;19929;-74
2021/12/18 06:58:42;;;;;;;20.45;2.70;;;6.00;99.90;;;;;;4954927;28;20085;-74
2021/12/18 07:01:07;;;;;;;17.35;2.83;;;6.10;99.90;;;;;;4971712;28;20043;-73
2021/12/18 07:03:34;;;;;;;16.55;2.83;;;6.10;99.90;;;;;;4954757;28;20092;-73
2021/12/18 07:06:00;;;;;;;12.57;2.38;;;6.10;99.90;;;;;;4970749;28;20584;-74
2021/12/18 07:08:26;;;;;;;16.02;2.60;;;6.10;99.90;;;;;;4937790;28;20043;-73
2021/12/18 07:10:52;;;;;;;13.88;2.75;;;6.10;99.90;;;;;;4971626;28;20259;-73
2021/12/18 07:13:18;;;;;;;14.30;2.78;;;6.00;99.90;;;;;;4938093;28;20094;-74
2021/12/18 07:15:43;;;;;;;25.02;3.30;;;6.00;99.90;;;;;;4938984;28;20432;-74
2021/12/18 07:18:09;;;;;;;16.25;2.90;;;6.00;99.90;;;;;;4953819;28;20047;-74
2021/12/18 07:20:35;;;;;;;15.55;2.88;;;6.00;99.90;;;;;;4971575;28;20484;-74
2021/12/18 07:23:01;;;;;;;16.92;2.90;;;6.00;99.90;;;;;;4953268;28;20061;-74
2021/12/18 07:25:27;;;;;;;15.80;2.78;;;6.00;99.90;;;;;;4953953;28;20051;-75
2021/12/18 07:27:54;;;;;;;14.93;2.78;;;6.00;99.90;;;;;;4971408;28;20440;-73
2021/12/18 07:30:19;;;;;;;17.48;2.88;;;6.00;99.90;;;;;;4938302;28;20433;-73
2021/12/18 07:32:45;;;;;;;16.60;2.80;;;6.00;99.90;;;;;;4941094;29;20062;-74
2021/12/18 07:35:12;;;;;;;13.40;2.70;;;6.00;99.90;;;;;;4964372;28;20480;-73
2021/12/18 07:37:38;;;;;;;16.05;2.58;;;6.00;99.90;;;;;;4952923;28;20050;-74
2021/12/18 07:40:07;;;;;;;13.50;2.55;;;6.00;99.90;;;;;;4938629;28;20051;-75
2021/12/18 07:42:33;;;;;;;12.75;2.58;;;6.00;99.90;;;;;;4954025;28;20043;-74
2021/12/18 07:44:59;;;;;;;18.63;2.97;;;6.00;99.90;;;;;;4954595;28;20094;-75
2021/12/18 07:47:25;;;;;;;12.90;2.53;;;6.00;99.90;;;;;;4970684;28;20184;-75
2021/12/18 07:49:51;;;;;;;12.88;2.60;;;6.00;99.90;;;;;;4954193;28;20082;-74
2021/12/18 07:52:17;;;;;;;15.32;3.15;;;6.00;99.90;;;;;;4935333;28;20086;-74
2021/12/18 07:54:43;;;;;;;;;;;6.00;99.90;;;;;;4955038;28;20050;-75
2021/12/18 07:57:09;;;;;;;14.73;2.33;;;6.00;99.90;;;;;;4956886;28;19933;-84
2021/12/18 07:59:35;;;;;;;15.85;2.40;;;6.00;99.90;;;;;;4958392;28;20064;-75
2021/12/18 08:02:01;;;;;;;12.48;2.88;;;6.00;99.90;;;;;;4974041;28;20529;-74
2021/12/18 08:04:27;;;;;;;13.95;2.80;;;6.00;99.90;;;;;;4974530;28;20645;-74
2021/12/18 08:06:53;;;;;;;13.68;2.63;;;6.20;99.90;;;;;;4956950;28;20089;-77
2021/12/18 08:09:19;;;;;;;13.52;2.88;;;6.00;99.90;;;;;;4956854;28;20497;-74
2021/12/18 08:11:45;;;;;;;16.63;2.80;;;6.10;99.90;;;;;;4974990;28;20101;-74
2021/12/18 08:14:10;;;;;;;13.85;2.95;;;6.10;99.90;;;;;;4939152;29;20508;-82
2021/12/18 08:16:36;;;;;;;11.63;2.60;;;6.10;99.90;;;;;;4916409;29;20051;-75
2021/12/18 08:19:02;;;;;;;14.93;2.95;;;6.10;99.90;;;;;;4928899;29;20509;-74
2021/12/18 08:21:27;;;;;;;16.27;3.00;;;6.10;99.90;;;;;;4935260;29;20051;-75
2021/12/18 08:23:53;;;;;;;17.42;3.38;;;6.30;99.90;;;;;;4935488;29;20422;-76
2021/12/18 08:26:19;;;;;;;18.08;3.58;;;6.10;99.90;;;;;;4934894;29;20040;-76
2021/12/18 08:28:45;;;;;;;14.65;3.75;;;6.10;99.90;;;;;;4935710;29;20519;-74
2021/12/18 08:31:10;;;;;;;15.05;3.38;;;6.10;99.90;;;;;;4935246;29;20055;-80
2021/12/18 08:33:36;;;;;;;15.02;3.70;;;6.20;99.90;;;;;;4924715;29;20410;-74
2021/12/18 08:36:02;;;;;;;13.20;3.15;;;6.20;99.90;;;;;;4933400;29;20058;-75
2021/12/18 08:38:28;;;;;;;17.58;3.92;;;6.20;99.90;;;;;;4933931;29;20052;-75
2021/12/18 08:40:54;;;;;;;14.82;3.78;;;6.20;99.90;;;;;;4935053;29;20059;-74
2021/12/18 08:43:20;;;;;;;22.13;4.47;;;6.30;99.90;;;;;;4935901;29;20068;-74
2021/12/18 08:45:46;;;;;;;19.00;4.82;;;6.20;99.90;;;;;;4936533;29;20119;-74
2021/12/18 08:48:12;;;;;;;18.85;4.65;;;6.30;99.90;;;;;;4934957;29;20060;-82
2021/12/18 08:50:37;;;;;;;15.30;4.22;;;6.30;99.90;;;;;;4934833;29;20048;-74
2021/12/18 08:53:03;;;;;;;24.08;5.25;;;6.30;99.90;;;;;;4934890;29;20051;-76
2021/12/18 08:55:29;;;;;;;18.25;5.03;;;6.30;99.90;;;;;;4934222;29;20091;-76
2021/12/18 08:57:55;;;;;;;19.55;4.15;;;6.40;99.90;;;;;;4929064;29;20055;-76
2021/12/18 09:00:23;;;;;;;23.05;4.30;;;6.40;99.90;;;;;;4925868;29;20079;-76
2021/12/18 09:02:53;;;;;;;25.33;4.88;;;6.40;99.90;;;;;;4931805;29;20493;-77
2021/12/18 09:05:18;;;;;;;20.98;4.57;;;6.40;99.90;;;;;;4928126;29;20048;-76
2021/12/18 09:07:44;;;;;;;21.67;4.50;;;6.40;99.90;;;;;;4928396;29;20044;-76
2021/12/18 09:10:11;;;;;;;19.50;4.72;;;6.40;99.90;;;;;;4918544;29;20405;-76
2021/12/18 09:12:38;;;;;;;22.13;4.88;;;6.40;99.90;;;;;;4936988;28;20069;-76
2021/12/18 09:15:04;;;;;;;20.88;5.20;;;6.50;99.90;;;;;;4953952;28;20477;-78
2021/12/18 09:17:30;;;;;;;19.73;4.85;;;6.50;99.90;;;;;;4967779;28;20550;-76
2021/12/18 09:19:56;;;;;;;20.67;4.50;;;6.50;99.90;;;;;;4963001;28;20047;-76
2021/12/18 09:22:21;;;;;;;24.17;5.90;;;6.50;99.90;;;;;;4970043;28;20058;-75
2021/12/18 09:24:48;;;;;;;16.30;4.57;;;6.60;99.90;;;;;;4971055;28;20090;-75
2021/12/18 09:27:17;;;;;;;19.52;5.25;;;6.60;99.90;;;;;;4973443;28;20050;-77
2021/12/18 09:29:43;;;;;;;23.00;5.28;;;6.60;99.90;;;;;;4968189;28;20077;-76
2021/12/18 09:32:09;;;;;;;;;;;6.70;99.90;;;;;;4954747;28;20121;-77
2021/12/18 09:34:34;;;;;;;23.90;5.22;;;6.70;99.90;;;;;;4959684;28;19926;-78
2021/12/18 09:37:01;;;;;;;24.50;5.20;;;6.70;99.90;;;;;;4972134;28;20519;-76
2021/12/18 09:39:27;;;;;;;21.52;5.10;;;6.70;99.90;;;;;;4955475;28;20133;-73
2021/12/18 09:41:53;;;;;;;;;;;6.80;99.90;;;;;;4955046;28;20046;-73
2021/12/18 09:44:28;;;;;;;21.33;4.75;;;7.10;99.90;;;;;;4973360;28;19969;-79
2021/12/18 09:46:55;;;;;;;24.02;5.63;;;6.80;99.90;;;;;;4956055;28;20050;-75
2021/12/18 09:49:21;;;;;;;22.15;5.00;;;6.80;99.90;;;;;;4973219;28;20046;-80
2021/12/18 09:51:47;;;;;;;;;;;6.80;99.90;;;;;;4972656;28;20082;-73
2021/12/18 09:54:13;;;;;;;26.60;5.35;;;6.80;99.90;;;;;;4972678;28;20299;-74
2021/12/18 09:56:39;;;;;;;24.55;5.68;;;6.90;99.90;;;;;;4955037;28;20089;-73
2021/12/18 09:59:05;;;;;;;25.58;5.85;;;7.00;99.90;;;;;;4972126;28;20078;-73
2021/12/18 10:01:32;;;;;;;22.98;5.80;;;6.90;99.90;;;;;;4971738;28;20047;-73
2021/12/18 10:04:00;;;;;;;27.85;5.63;;;6.90;99.90;;;;;;4972938;28;20047;-73
2021/12/18 10:06:36;;;;;;;24.35;5.82;;;6.90;99.90;;;;;;4971536;28;20047;-73
2021/12/18 10:09:07;;;;;;;26.17;5.72;;;7.00;99.90;;;;;;4972288;28;20058;-73
2021/12/18 10:11:33;;;;;;;26.92;5.65;;;7.10;99.90;;;;;;4954813;28;20154;-74
2021/12/18 10:14:02;;;;;;;19.08;5.38;;;7.10;99.90;;;;;;4972282;28;20552;-73
2021/12/18 10:16:29;;;;;;;29.58;5.97;;;7.10;99.90;;;;;;4971594;28;20107;-76
2021/12/18 10:18:57;;;;;;;32.78;6.55;;;7.10;99.90;;;;;;4954774;28;20053;-73
2021/12/18 10:21:25;;;;;;;23.10;6.18;;;7.10;99.90;;;;;;4971555;28;20101;-79
2021/12/18 10:23:52;;;;;;;28.90;6.03;;;7.20;99.90;;;;;;4971257;28;20050;-74
2021/12/18 10:26:38;;;;;;;28.48;6.32;;;7.20;99.90;;;;;;4954960;28;20484;-73
2021/12/18 10:29:21;;;;;;;27.10;6.28;;;7.30;99.90;;;;;;4939359;28;20065;-73
2021/12/18 10:31:47;;;;;;;25.98;6.55;;;7.30;99.90;;;;;;4937512;28;20051;-73
2021/12/18 10:34:17;;;;;;;25.40;6.05;;;7.30;99.90;;;;;;4952525;28;20113;-73
2021/12/18 10:37:14;;;;;;;26.92;6.70;;;7.40;99.90;;;;;;4970831;28;20117;-73
2021/12/18 10:39:50;;;;;;;30.45;6.53;;;7.40;99.90;;;;;;4954852;28;20193;-74
2021/12/18 10:42:18;;;;;;;27.98;6.45;;;7.50;99.90;;;;;;4971027;28;20073;-73
2021/12/18 10:45:05;;;;;;;24.05;5.43;;;7.50;99.90;;;;;;4954589;28;20496;-75
2021/12/18 10:48:02;;;;;;;27.30;5.93;;;7.50;99.90;;;;;;4971433;28;20093;-74
2021/12/18 10:50:36;;;;;;;17.67;5.18;;;7.60;99.90;;;;;;4971692;28;20042;-80
2021/12/18 10:53:05;;;;;;;19.73;5.15;;;7.60;99.90;;;;;;4953604;28;20054;-74
2021/12/18 10:55:35;;;;;;;13.73;3.63;;;7.70;99.90;;;;;;4971281;28;20055;-73
2021/12/18 10:58:05;;;;;;;16.33;3.67;;;7.80;99.90;;;;;;4971600;28;20122;-74
2021/12/18 11:00:39;;;;;;;9.32;2.60;;;7.80;99.90;;;;;;4971520;28;20051;-74
2021/12/18 11:03:19;;;;;;;11.43;2.42;;;7.90;99.90;;;;;;4953895;28;20062;-73
2021/12/18 11:06:22;;;;;;;9.13;2.30;;;7.80;99.90;;;;;;4965512;28;20378;-73
2021/12/18 11:09:12;;;;;;;10.75;2.63;;;7.90;99.90;;;;;;4954085;28;20055;-73
2021/12/18 11:14:18;;;;;;;13.15;2.75;;;8.00;99.90;;;;;;4972096;28;20062;-73
2021/12/18 11:16:53;;;;;;;11.05;2.60;;;8.00;99.90;;;;;;4971132;28;20059;-73
2021/12/18 11:19:22;;;;;;;13.27;2.70;;;8.10;99.90;;;;;;4972033;28;20455;-73
2021/12/18 11:21:49;;;;;;;9.93;3.28;;;8.10;99.90;;;;;;4970306;28;20074;-73
2021/12/18 11:24:16;;;;;;;18.25;2.75;;;8.10;99.90;;;;;;4971539;28;20114;-73
2021/12/18 11:26:56;;;;;;;9.98;2.88;;;8.10;99.90;;;;;;4953597;28;20165;-73
2021/12/18 11:29:46;;;;;;;14.73;2.55;;;8.20;99.90;;;;;;4971764;28;20319;-73
2021/12/18 11:32:18;;;;;;;13.18;2.97;;;8.20;99.90;;;;;;4973126;28;20086;-73
2021/12/18 11:34:46;;;;;;;13.82;3.28;;;8.20;99.90;;;;;;4958434;28;20102;-72
2021/12/18 11:37:14;;;;;;;10.15;2.80;;;8.20;99.90;;;;;;4956963;28;20158;-75
2021/12/18 11:39:43;;;;;;;11.90;3.00;;;8.30;99.90;;;;;;4975294;28;20110;-73
2021/12/18 11:42:10;;;;;;;13.57;2.97;;;8.30;99.90;;;;;;4975325;28;20141;-73
2021/12/18 11:44:41;;;;;;;12.02;3.58;;;8.30;99.90;;;;;;4975463;28;20102;-73
2021/12/18 11:47:24;;;;;;;14.77;2.85;;;8.30;99.90;;;;;;4958213;28;20477;-74
2021/12/18 11:49:51;;;;;;;14.25;3.20;;;8.30;99.90;;;;;;4956194;28;20121;-75
2021/12/18 11:52:16;;;;;;;15.70;3.30;;;8.30;99.90;;;;;;4964549;28;20051;-73
2021/12/18 11:54:44;;;;;;;12.57;3.50;;;8.30;99.90;;;;;;4946007;28;20052;-74
2021/12/18 11:57:31;;;;;;;12.82;3.58;;;8.30;99.90;;;;;;4960514;28;20047;-77
2021/12/18 11:59:56;;;;;;;14.73;3.40;;;8.30;99.90;;;;;;4947302;28;20047;-72
2021/12/18 12:02:46;;;;;;;12.82;3.63;;;8.30;99.90;;;;;;4972254;28;20058;-74
2021/12/18 12:05:13;;;;;;;19.33;4.03;;;8.30;99.90;;;;;;4937398;28;20055;-73
2021/12/18 12:07:39;;;;;;;10.20;3.63;;;8.30;99.90;;;;;;4953534;28;20508;-73
2021/12/18 12:10:24;;;;;;;14.07;4.03;;;8.30;99.90;;;;;;4957967;28;20066;-73
2021/12/18 12:12:56;;;;;;;12.20;3.60;;;8.30;99.90;;;;;;4973610;28;20054;-74
2021/12/18 12:15:28;;;;;;;8.45;3.45;;;8.30;99.90;;;;;;4974830;28;20050;-74
2021/12/18 12:17:54;;;;;;;11.93;4.00;;;8.30;99.90;;;;;;4957020;28;20726;-73
2021/12/18 12:20:41;;;;;;;14.48;3.90;;;8.30;99.90;;;;;;4971418;28;20416;-76
2021/12/18 12:23:09;;;;;;;12.32;3.45;;;8.40;99.90;;;;;;4973523;28;20393;-72
2021/12/18 12:25:50;;;;;;;12.30;3.63;;;8.40;99.90;;;;;;4973782;28;20047;-80
2021/12/18 12:28:25;;;;;;;11.18;3.90;;;8.50;99.90;;;;;;4956987;28;20646;-73
2021/12/18 12:31:06;;;;;;;13.57;3.83;;;8.50;99.90;;;;;;4948283;28;20572;-76
2021/12/18 12:33:35;;;;;;;15.15;4.10;;;8.40;99.90;;;;;;4956211;28;20058;-74
2021/12/18 12:36:10;;;;;;;10.57;4.00;;;8.40;99.90;;;;;;4969736;28;20047;-73
2021/12/18 12:38:55;;;;;;;13.10;4.10;;;8.50;99.90;;;;;;4973892;28;20050;-80
2021/12/18 12:41:33;;;;;;;13.05;4.43;;;8.50;99.90;;;;;;4973417;28;20481;-73
2021/12/18 12:44:04;;;;;;;16.80;4.95;;;8.40;99.90;;;;;;4968866;28;20376;-73
2021/12/18 12:46:31;;;;;;;14.30;4.03;;;8.40;99.90;;;;;;4961290;28;20070;-75
2021/12/18 12:49:12;;;;;;;14.85;3.95;;;8.40;99.90;;;;;;4954745;28;20807;-73
2021/12/18 12:52:10;;;;;;;11.88;3.78;;;8.40;99.90;;;;;;4973718;28;20058;-82
2021/12/18 12:54:54;;;;;;;11.88;4.00;;;8.50;99.90;;;;;;4974852;28;20049;-80
2021/12/18 12:57:23;;;;;;;11.00;4.28;;;8.50;99.90;;;;;;4956820;28;20054;-75
2021/12/18 12:59:58;;;;;;;13.93;4.15;;;8.50;99.90;;;;;;4955769;28;20054;-73
2021/12/18 13:02:32;;;;;;;12.07;4.20;;;8.50;99.90;;;;;;4974187;28;20061;-74
2021/12/18 13:05:12;;;;;;;13.60;4.15;;;8.50;99.90;;;;;;4940165;29;20098;-74
2021/12/18 13:08:00;;;;;;;11.05;4.38;;;8.50;99.90;;;;;;4953826;29;20074;-75
2021/12/18 13:10:29;;;;;;;11.13;3.60;;;8.40;99.90;;;;;;4937526;29;20503;-75
2021/12/18 13:13:03;;;;;;;12.55;3.70;;;8.40;99.90;;;;;;4953894;29;20110;-76
2021/12/18 13:15:52;;;;;;;10.85;3.70;;;8.40;99.90;;;;;;4939723;28;20534;-73
2021/12/18 13:18:20;;;;;;;10.65;3.30;;;8.40;99.90;;;;;;4956577;28;20062;-74
2021/12/18 13:20:56;;;;;;;8.05;2.90;;;8.40;99.90;;;;;;4956159;28;20085;-76
2021/12/18 13:23:35;;;;;;;9.13;3.03;;;8.40;99.90;;;;;;4947076;28;20062;-76
2021/12/18 13:26:01;;;;;;;8.05;3.00;;;8.40;99.90;;;;;;4972952;28;20051;-74
2021/12/18 13:28:27;;;;;;;9.35;2.97;;;8.40;99.90;;;;;;4938803;29;20061;-74
2021/12/18 13:30:54;;;;;;;7.85;2.72;;;8.40;99.90;;;;;;4941351;28;20504;-81
2021/12/18 13:33:29;;;;;;;9.13;2.65;;;8.50;99.90;;;;;;4968425;28;20073;-75
2021/12/18 13:35:58;;;;;;;13.02;2.83;;;8.40;99.90;;;;;;4972529;28;20058;-79
2021/12/18 13:38:25;;;;;;;7.43;2.67;;;8.50;99.90;;;;;;4972985;28;20058;-75
2021/12/18 13:40:52;;;;;;;8.35;2.80;;;8.60;99.90;;;;;;4969208;28;20081;-74
2021/12/18 13:43:23;;;;;;;10.55;2.95;;;8.50;99.90;;;;;;4964599;28;20089;-77
2021/12/18 13:45:55;;;;;;;12.38;3.28;;;8.50;99.90;;;;;;4972665;28;20054;-75
2021/12/18 13:48:43;;;;;;;9.73;2.80;;;8.50;99.90;;;;;;4953065;28;20543;-75